createdAt,value
2023-04-25T00:01:48.634Z,0.98
2023-04-25T00:04:50.561Z,0.90
2023-04-25T00:07:52.357Z,0.80
2023-04-25T00:10:53.837Z,0.90
2023-04-25T00:13:55.365Z,1.00
2023-04-25T00:16:57.084Z,0.80
2023-04-25T00:19:59.197Z,0.98
2023-04-25T00:23:00.728Z,0.90
2023-04-25T00:26:02.334Z,0.80
2023-04-25T00:29:04.001Z,0.90
2023-04-25T00:32:05.586Z,1.00
2023-04-25T00:35:07.685Z,0.95
2023-04-25T00:38:09.170Z,1.00
2023-04-25T00:41:11.103Z,0.85
2023-04-25T00:44:13.183Z,1.00
2023-04-25T00:47:15.538Z,0.93
2023-04-25T00:50:17.405Z,1.10
2023-04-25T00:53:19.058Z,1.00
2023-04-25T00:56:22.238Z,1.00
2023-04-25T00:59:24.256Z,0.90
2023-04-25T01:02:26.928Z,1.00
2023-04-25T01:05:28.571Z,1.00
2023-04-25T01:08:30.216Z,1.00
2023-04-25T01:11:31.925Z,0.95
2023-04-25T01:14:33.788Z,0.90
2023-04-25T01:17:35.739Z,0.93
2023-04-25T01:20:38.230Z,0.90
2023-04-25T01:23:41.453Z,0.90
2023-04-25T01:26:50.529Z,0.93
2023-04-25T01:29:56.836Z,1.00
2023-04-25T01:33:00.140Z,0.90
2023-04-25T01:36:04.406Z,0.90
2023-04-25T01:39:06.035Z,0.95
2023-04-25T01:42:07.702Z,0.88
2023-04-25T01:45:11.636Z,0.90
2023-04-25T01:48:14.638Z,0.90
2023-04-25T01:51:18.964Z,0.90
2023-04-25T01:54:21.168Z,1.00
2023-04-25T01:57:23.011Z,1.00
2023-04-25T02:00:24.774Z,0.90
2023-04-25T02:03:26.667Z,0.80
2023-04-25T02:06:28.873Z,1.00
2023-04-25T02:09:32.425Z,0.90
2023-04-25T02:12:36.965Z,1.00
2023-04-25T02:15:59.462Z,1.00
2023-04-25T02:19:01.163Z,0.90
2023-04-25T02:22:02.886Z,1.00
2023-04-25T02:25:05.624Z,0.90
2023-04-25T02:28:07.281Z,0.90
2023-04-25T02:31:08.843Z,0.90
2023-04-25T02:34:10.378Z,1.00
2023-04-25T02:37:13.894Z,0.90
2023-04-25T02:40:15.516Z,1.00
2023-04-25T02:43:17.160Z,1.00
2023-04-25T02:46:28.658Z,0.90
2023-04-25T02:49:39.728Z,0.90
2023-04-25T02:52:41.252Z,1.00
2023-04-25T02:55:48.903Z,0.90
2023-04-25T02:58:50.718Z,1.00
2023-04-25T03:01:52.408Z,0.90
2023-04-25T03:04:54.818Z,1.00
2023-04-25T03:07:56.369Z,0.90
2023-04-25T03:10:58.407Z,1.00
2023-04-25T03:14:00.273Z,0.90
2023-04-25T03:17:02.310Z,0.80
2023-04-25T03:20:05.101Z,0.73
2023-04-25T03:23:06.994Z,1.00
2023-04-25T03:26:08.894Z,0.80
2023-04-25T03:29:10.453Z,0.85
2023-04-25T03:32:14.087Z,0.90
2023-04-25T03:35:15.769Z,1.00
2023-04-25T03:38:18.115Z,0.95
2023-04-25T03:41:21.045Z,0.85
2023-04-25T03:44:29.435Z,0.90
2023-04-25T03:47:31.265Z,0.90
2023-04-25T03:50:33.470Z,0.80
2023-04-25T03:53:35.240Z,0.90
2023-04-25T03:56:56.704Z,1.00
2023-04-25T04:00:02.195Z,0.75
2023-04-25T04:03:14.958Z,0.90
2023-04-25T04:06:17.633Z,0.85
2023-04-25T04:09:22.887Z,0.88
2023-04-25T04:12:24.405Z,0.93
2023-04-25T04:15:25.966Z,1.00
2023-04-25T04:18:28.943Z,0.90
2023-04-25T04:21:32.841Z,0.90
2023-04-25T04:24:35.114Z,1.00
2023-04-25T04:27:41.525Z,0.90
2023-04-25T04:31:11.987Z,1.02
2023-04-25T04:34:13.696Z,0.90
2023-04-25T04:37:15.761Z,0.90
2023-04-25T04:40:18.630Z,0.90
2023-04-25T04:43:26.886Z,0.90
2023-04-25T04:46:43.206Z,0.90
2023-04-25T04:49:48.200Z,1.02
2023-04-25T04:53:07.077Z,0.80
2023-04-25T04:56:32.917Z,0.90
2023-04-25T04:59:50.953Z,1.00
2023-04-25T05:03:12.551Z,1.00
2023-04-25T05:06:30.124Z,0.88
2023-04-25T05:10:04.555Z,0.77
2023-04-25T05:13:26.306Z,1.00
2023-04-25T05:16:47.042Z,0.80
2023-04-25T05:20:10.233Z,0.90
2023-04-25T05:23:36.394Z,1.00
2023-04-25T05:26:56.730Z,1.00
2023-04-25T05:30:30.597Z,1.08
2023-04-25T05:33:41.893Z,0.90
2023-04-25T05:36:43.493Z,1.10
2023-04-25T05:39:44.991Z,1.10
2023-04-25T05:43:00.920Z,1.10
2023-04-25T05:46:19.543Z,1.00
2023-04-25T05:49:35.183Z,1.00
2023-04-25T05:53:10.177Z,1.00
2023-04-25T05:56:15.369Z,0.90
2023-04-25T05:59:16.840Z,1.05
2023-04-25T06:02:19.483Z,1.05
2023-04-25T06:05:21.466Z,1.20
2023-04-25T06:08:23.476Z,1.20
2023-04-25T06:11:24.975Z,1.20
2023-04-25T06:14:28.944Z,1.10
2023-04-25T06:17:31.530Z,1.00
2023-04-25T06:20:33.793Z,1.40
2023-04-25T06:23:36.268Z,1.00
2023-04-25T06:26:41.497Z,1.00
2023-04-25T06:29:43.225Z,1.02
2023-04-25T06:32:44.875Z,1.00
2023-04-25T06:35:46.637Z,1.10
2023-04-25T06:38:51.154Z,1.17
2023-04-25T06:41:53.110Z,1.10
2023-04-25T06:45:13.216Z,1.20
2023-04-25T06:48:16.485Z,1.20
2023-04-25T06:51:17.981Z,1.00
2023-04-25T06:54:20.596Z,1.05
2023-04-25T06:57:31.701Z,1.20
2023-04-25T07:00:44.389Z,1.00
2023-04-25T07:03:46.204Z,1.08
2023-04-25T07:06:52.657Z,1.73
2023-04-25T07:09:59.286Z,1.00
2023-04-25T07:13:01.726Z,1.10
2023-04-25T07:16:04.100Z,1.10
2023-04-25T07:19:06.958Z,1.15
2023-04-25T07:22:08.861Z,1.20
2023-04-25T07:25:12.980Z,1.00
2023-04-25T07:28:14.880Z,1.20
2023-04-25T07:31:18.945Z,1.20
2023-04-25T07:34:20.434Z,1.20
2023-04-25T07:37:22.087Z,1.30
2023-04-25T07:40:37.548Z,1.08
2023-04-25T07:43:42.744Z,1.00
2023-04-25T07:46:44.513Z,1.40
2023-04-25T07:49:46.655Z,1.10
2023-04-25T07:52:48.397Z,1.30
2023-04-25T07:56:00.287Z,1.00
2023-04-25T07:59:06.255Z,1.15
2023-04-25T08:02:08.628Z,0.90
2023-04-25T08:05:13.106Z,1.13
2023-04-25T08:08:17.083Z,1.10
2023-04-25T08:11:18.783Z,1.27
2023-04-25T08:14:20.733Z,1.00
2023-04-25T08:17:23.757Z,1.00
2023-04-25T08:20:25.999Z,1.00
2023-04-25T08:23:30.274Z,1.20
2023-04-25T08:26:40.101Z,1.02
2023-04-25T08:29:43.039Z,1.30
2023-04-25T08:32:45.256Z,1.10
2023-04-25T08:35:59.981Z,1.10
2023-04-25T08:39:02.758Z,1.20
2023-04-25T08:42:08.919Z,1.00
2023-04-25T08:45:11.826Z,1.10
2023-04-25T08:48:16.801Z,1.23
2023-04-25T08:51:26.861Z,1.05
2023-04-25T08:54:35.658Z,1.08
2023-04-25T08:57:52.938Z,0.98
2023-04-25T09:00:54.807Z,1.10
2023-04-25T09:03:58.787Z,1.20
2023-04-25T09:07:00.407Z,1.02
2023-04-25T09:10:04.249Z,1.00
2023-04-25T09:13:12.355Z,1.10
2023-04-25T09:16:34.652Z,1.20
2023-04-25T09:20:14.787Z,1.10
2023-04-25T09:23:16.324Z,1.10
2023-04-25T09:26:22.318Z,1.05
2023-04-25T09:29:35.940Z,0.88
2023-04-25T09:32:38.181Z,1.00
2023-04-25T09:35:43.228Z,0.93
2023-04-25T09:38:49.215Z,1.10
2023-04-25T09:42:04.677Z,0.82
2023-04-25T09:45:08.305Z,1.10
2023-04-25T09:48:22.835Z,1.13
2023-04-25T09:51:28.798Z,0.82
2023-04-25T09:54:32.451Z,1.00
2023-04-25T09:57:53.165Z,0.95
2023-04-25T10:00:59.078Z,0.90
2023-04-25T10:04:11.815Z,0.90
2023-04-25T10:07:22.223Z,1.10
2023-04-25T10:10:26.729Z,1.00
2023-04-25T10:13:30.643Z,0.85
2023-04-25T10:16:32.352Z,1.10
2023-04-25T10:19:34.445Z,0.90
2023-04-25T10:22:46.830Z,1.00
2023-04-25T10:25:49.877Z,0.98
2023-04-25T10:29:02.568Z,1.00
2023-04-25T10:32:04.444Z,1.00
2023-04-25T10:35:19.152Z,1.00
2023-04-25T10:38:20.880Z,0.80
2023-04-25T10:41:23.813Z,0.90
2023-04-25T10:44:29.829Z,0.88
2023-04-25T10:47:44.078Z,0.80
2023-04-25T10:50:45.696Z,1.10
2023-04-25T10:54:08.660Z,1.35
2023-04-25T10:57:30.712Z,1.42
2023-04-25T11:00:47.969Z,1.33
2023-04-25T11:03:59.579Z,1.35
2023-04-25T11:07:08.270Z,1.27
2023-04-25T11:10:10.224Z,1.30
2023-04-25T11:13:15.396Z,1.38
2023-04-25T11:16:26.893Z,1.23
2023-04-25T11:19:30.127Z,1.48
2023-04-25T11:22:32.354Z,1.60
2023-04-25T11:25:35.495Z,1.30
2023-04-25T11:28:39.187Z,1.30
2023-04-25T11:31:45.788Z,1.48
2023-04-25T11:34:47.614Z,1.10
2023-04-25T11:37:49.484Z,1.50
2023-04-25T11:40:55.596Z,1.33
2023-04-25T11:43:57.168Z,1.20
2023-04-25T11:46:58.807Z,1.40
2023-04-25T11:50:01.576Z,1.00
2023-04-25T11:53:03.081Z,1.27
2023-04-25T11:56:11.416Z,1.10
2023-04-25T11:59:13.891Z,1.15
2023-04-25T12:02:27.096Z,1.60
2023-04-25T12:05:33.929Z,1.20
2023-04-25T12:08:36.211Z,1.40
2023-04-25T12:11:53.728Z,1.08
2023-04-25T12:14:56.138Z,1.00
2023-04-25T12:17:57.643Z,1.05
2023-04-25T12:20:59.284Z,1.10
2023-04-25T12:24:15.413Z,1.00
2023-04-25T12:27:19.678Z,1.10
2023-04-25T12:30:21.314Z,1.10
2023-04-25T12:33:23.750Z,1.10
2023-04-25T12:36:25.224Z,1.17
2023-04-25T12:39:26.801Z,0.95
2023-04-25T12:42:28.639Z,0.88
2023-04-25T12:45:30.138Z,1.00
2023-04-25T12:48:32.228Z,1.00
2023-04-25T12:51:33.875Z,1.00
2023-04-25T12:54:36.217Z,0.98
2023-04-25T12:57:37.713Z,0.90
2023-04-25T13:00:39.656Z,0.93
2023-04-25T13:03:41.459Z,0.90
2023-04-25T13:06:43.251Z,0.98
2023-04-25T13:09:44.750Z,1.00
2023-04-25T13:12:46.918Z,1.10
2023-04-25T13:15:48.597Z,0.90
2023-04-25T13:18:50.071Z,0.98
2023-04-25T13:21:51.794Z,1.00
2023-04-25T13:24:53.460Z,0.90
2023-04-25T13:27:54.980Z,0.90
2023-04-25T13:30:56.503Z,0.90
2023-04-25T13:33:57.968Z,0.95
2023-04-25T13:36:59.702Z,0.90
2023-04-25T13:40:04.814Z,1.02
2023-04-25T13:43:07.429Z,1.10
2023-04-25T13:46:10.932Z,0.90
2023-04-25T13:49:23.842Z,1.10
2023-04-25T13:52:25.411Z,1.15
2023-04-25T13:55:27.254Z,1.40
2023-04-25T13:58:28.733Z,1.13
2023-04-25T14:01:32.071Z,1.15
2023-04-25T14:04:34.252Z,1.00
2023-04-25T14:07:35.962Z,0.93
2023-04-25T14:10:38.264Z,0.80
2023-04-25T14:13:39.768Z,0.95
2023-04-25T14:16:41.256Z,0.90
2023-04-25T14:19:46.654Z,1.00
2023-04-25T14:22:48.279Z,0.90
2023-04-25T14:25:49.878Z,0.90
2023-04-25T14:28:52.585Z,1.00
2023-04-25T14:31:55.245Z,1.10
2023-04-25T14:34:56.763Z,0.98
2023-04-25T14:37:58.680Z,0.80
2023-04-25T14:41:00.542Z,0.77
2023-04-25T14:44:02.263Z,0.93
2023-04-25T14:47:03.862Z,1.10
2023-04-25T14:50:06.753Z,0.77
2023-04-25T14:53:08.879Z,0.90
2023-04-25T14:56:10.392Z,0.82
2023-04-25T14:59:11.958Z,0.90
2023-04-25T15:02:13.780Z,0.90
2023-04-25T15:05:16.098Z,1.00
2023-04-25T15:08:17.618Z,1.10
2023-04-25T15:11:21.387Z,0.90
2023-04-25T15:14:22.895Z,0.75
2023-04-25T15:17:24.384Z,1.00
2023-04-25T15:20:26.159Z,0.85
2023-04-25T15:23:29.625Z,0.73
2023-04-25T15:26:31.331Z,0.90
2023-04-25T15:29:32.893Z,1.08
2023-04-25T15:32:35.126Z,0.90
2023-04-25T15:35:36.832Z,1.25
2023-04-25T15:38:38.299Z,1.10
2023-04-25T15:41:42.557Z,1.10
2023-04-25T15:44:44.032Z,0.93
2023-04-25T15:47:45.812Z,1.08
2023-04-25T15:50:47.422Z,1.10
2023-04-25T15:53:49.167Z,0.90
2023-04-25T15:56:51.095Z,1.20
2023-04-25T15:59:52.798Z,1.00
2023-04-25T16:02:54.588Z,1.20
2023-04-25T16:05:56.262Z,1.20
2023-04-25T16:08:57.836Z,1.05
2023-04-25T16:11:59.430Z,1.30
2023-04-25T16:15:01.074Z,1.20
2023-04-25T16:18:03.239Z,1.20
2023-04-25T16:21:04.863Z,1.20
2023-04-25T16:24:06.713Z,1.20
2023-04-25T16:27:08.229Z,1.20
2023-04-25T16:30:11.515Z,1.20
2023-04-25T16:33:13.094Z,1.00
2023-04-25T16:36:14.613Z,1.38
2023-04-25T16:39:16.474Z,1.08
2023-04-25T16:42:17.984Z,1.00
2023-04-25T16:45:21.117Z,0.98
2023-04-25T16:48:24.274Z,1.10
2023-04-25T16:51:26.255Z,1.73
2023-04-25T16:54:27.704Z,1.10
2023-04-25T16:57:29.192Z,0.90
2023-04-25T17:00:31.006Z,1.08
2023-04-25T17:03:34.695Z,0.90
2023-04-25T17:06:36.980Z,0.98
2023-04-25T17:09:38.867Z,1.05
2023-04-25T17:12:40.403Z,1.10
2023-04-25T17:15:42.192Z,1.10
2023-04-25T17:18:43.912Z,1.20
2023-04-25T17:21:45.631Z,1.20
2023-04-25T17:24:47.155Z,0.80
2023-04-25T17:27:48.833Z,1.00
2023-04-25T17:30:51.437Z,1.10
2023-04-25T17:33:53.016Z,1.00
2023-04-25T17:36:54.632Z,0.80
2023-04-25T17:39:56.139Z,0.93
2023-04-25T17:42:57.622Z,1.00
2023-04-25T17:45:59.404Z,0.88
2023-04-25T17:49:01.189Z,0.80
2023-04-25T17:52:02.845Z,1.00
2023-04-25T17:55:06.448Z,0.90
2023-04-25T17:58:07.900Z,0.90
2023-04-25T18:01:09.519Z,1.00
2023-04-25T18:04:11.009Z,0.90
2023-04-25T18:07:12.517Z,0.88
2023-04-25T18:10:14.543Z,0.90
2023-04-25T18:13:17.255Z,0.90
2023-04-25T18:16:18.921Z,0.80
2023-04-25T18:19:23.923Z,0.95
2023-04-25T18:22:25.536Z,0.80
2023-04-25T18:25:27.153Z,0.82
2023-04-25T18:28:29.164Z,1.05
2023-04-25T18:31:32.100Z,0.70
2023-04-25T18:34:34.180Z,0.80
2023-04-25T18:37:36.072Z,0.73
2023-04-25T18:40:44.153Z,0.88
2023-04-25T18:43:58.510Z,1.02
2023-04-25T18:46:59.969Z,0.90
2023-04-25T18:50:01.658Z,0.70
2023-04-25T18:53:03.332Z,0.80
2023-04-25T18:56:04.885Z,0.80
2023-04-25T18:59:06.632Z,0.73
2023-04-25T19:02:09.243Z,0.80
2023-04-25T19:05:10.849Z,0.70
2023-04-25T19:08:12.323Z,0.63
2023-04-25T19:11:20.986Z,0.77
2023-04-25T19:14:22.968Z,0.80
2023-04-25T19:17:24.606Z,0.90
2023-04-25T19:20:26.630Z,0.70
2023-04-25T19:23:31.106Z,0.90
2023-04-25T19:26:32.727Z,1.00
2023-04-25T19:29:34.653Z,0.85
2023-04-25T19:32:37.325Z,0.60
2023-04-25T19:35:38.789Z,0.70
2023-04-25T19:38:40.270Z,0.80
2023-04-25T19:41:41.771Z,0.80
2023-04-25T19:44:43.287Z,0.80
2023-04-25T19:47:44.915Z,0.60
2023-04-25T19:50:46.518Z,0.73
2023-04-25T19:53:47.994Z,0.80
2023-04-25T19:56:49.678Z,0.70
2023-04-25T19:59:51.327Z,0.77
2023-04-25T20:02:52.973Z,0.70
2023-04-25T20:05:54.515Z,0.70
2023-04-25T20:08:56.244Z,0.80
2023-04-25T20:11:57.782Z,0.70
2023-04-25T20:14:59.239Z,0.73
2023-04-25T20:18:00.887Z,0.70
2023-04-25T20:21:02.650Z,0.80
2023-04-25T20:24:04.703Z,0.75
2023-04-25T20:27:07.235Z,0.70
2023-04-25T20:30:10.486Z,0.75
2023-04-25T20:33:12.136Z,0.70
2023-04-25T20:36:15.510Z,0.65
2023-04-25T20:39:17.194Z,0.80
2023-04-25T20:42:19.679Z,0.60
2023-04-25T20:45:21.212Z,0.70
2023-04-25T20:48:22.704Z,0.73
2023-04-25T20:51:24.250Z,0.82
2023-04-25T20:54:27.028Z,0.80
2023-04-25T20:57:29.196Z,0.70
2023-04-25T21:00:30.745Z,0.70
2023-04-25T21:03:33.715Z,0.77
2023-04-25T21:06:35.295Z,0.60
2023-04-25T21:09:36.773Z,0.70
2023-04-25T21:12:38.364Z,0.75
2023-04-25T21:15:39.897Z,0.90
2023-04-25T21:18:41.415Z,0.63
2023-04-25T21:21:42.992Z,0.70
2023-04-25T21:24:44.550Z,0.70
2023-04-25T21:27:47.601Z,0.70
2023-04-25T21:30:49.219Z,0.60
2023-04-25T21:33:50.745Z,0.60
2023-04-25T21:36:52.200Z,0.70
2023-04-25T21:39:54.363Z,0.63
2023-04-25T21:42:56.731Z,0.80
2023-04-25T21:46:21.738Z,0.70
2023-04-25T21:49:19.742Z,0.80
2023-04-25T21:52:21.343Z,0.63
2023-04-25T21:55:23.000Z,0.68
2023-04-25T21:58:24.725Z,0.68
2023-04-25T22:01:27.469Z,0.50
2023-04-25T22:04:29.266Z,0.70
2023-04-25T22:07:31.015Z,0.63
2023-04-25T22:10:32.534Z,0.65
2023-04-25T22:13:34.061Z,0.90
2023-04-25T22:16:35.645Z,0.60
2023-04-25T22:19:37.228Z,0.60
2023-04-25T22:22:39.752Z,0.50
2023-04-25T22:25:41.976Z,0.60
2023-04-25T22:28:43.454Z,0.70
2023-04-25T22:31:44.938Z,0.65
2023-04-25T22:34:46.624Z,0.70
2023-04-25T22:37:48.132Z,0.70
2023-04-25T22:40:52.162Z,0.77
2023-04-25T22:43:53.859Z,0.70
2023-04-25T22:46:55.467Z,0.70
2023-04-25T22:49:57.861Z,0.52
2023-04-25T22:52:59.379Z,0.63
2023-04-25T22:56:00.938Z,0.60
2023-04-25T22:59:02.495Z,0.63
2023-04-25T23:02:04.062Z,0.70
2023-04-25T23:05:06.983Z,0.60
2023-04-25T23:08:08.589Z,0.80
2023-04-25T23:11:10.127Z,0.60
2023-04-25T23:14:11.669Z,0.77
2023-04-25T23:17:13.616Z,0.60
2023-04-25T23:20:15.242Z,0.70
2023-04-25T23:23:16.974Z,0.70
2023-04-25T23:26:18.730Z,0.60
2023-04-25T23:29:20.209Z,0.60
2023-04-25T23:32:22.272Z,0.68
2023-04-25T23:35:23.834Z,0.70
2023-04-25T23:38:25.471Z,0.50
2023-04-25T23:41:27.149Z,0.60
2023-04-25T23:44:28.638Z,0.65
2023-04-25T23:47:30.169Z,0.70
2023-04-25T23:50:32.077Z,0.70
2023-04-25T23:53:33.559Z,0.60
2023-04-25T23:56:35.012Z,0.60
2023-04-25T23:59:36.464Z,0.70
